Time;durP1;ratioP1;P1;durP2;ratioP2;P2;SDS_P1;SDS_P2;PMS_P1;PMS_P2;Temp;Humidity;BMP_temperature;BMP_pressure;BME280_temperature;BME280_humidity;BME280_pressure;Samples;Min_cycle;Max_cycle;Signal;HPM_P1;HPM_P2
2022/05/22 00:00:33;;;;;;;11.40;8.73;;;16.80;86.90;;;;;;4997035;28;20472;-67
2022/05/22 00:03:00;;;;;;;9.43;7.90;;;16.70;87.00;;;;;;4996886;28;20934;-67
2022/05/22 00:05:27;;;;;;;9.27;8.37;;;16.70;87.10;;;;;;4996899;28;20444;-67
2022/05/22 00:07:55;;;;;;;10.67;8.30;;;16.70;87.10;;;;;;4997835;28;20997;-68
2022/05/22 00:10:22;;;;;;;9.13;8.33;;;16.70;87.40;;;;;;4998011;28;20476;-67
2022/05/22 00:12:49;;;;;;;9.23;8.30;;;16.60;87.40;;;;;;4998454;28;20448;-67
2022/05/22 00:15:16;;;;;;;8.87;8.07;;;16.70;87.60;;;;;;4998658;28;20448;-67
2022/05/22 00:17:45;;;;;;;10.23;9.30;;;16.60;87.50;;;;;;4999502;28;20591;-67
2022/05/22 00:20:12;;;;;;;9.70;7.97;;;16.60;87.70;;;;;;4999375;28;20452;-67
2022/05/22 00:22:40;;;;;;;9.80;8.67;;;16.60;87.80;;;;;;4997924;28;20452;-67
2022/05/22 00:25:10;;;;;;;9.07;7.97;;;16.60;87.90;;;;;;4996522;28;20456;-67
2022/05/22 00:27:37;;;;;;;9.37;8.50;;;16.50;87.80;;;;;;4996174;28;20472;-67
2022/05/22 00:30:05;;;;;;;8.90;8.10;;;16.50;87.90;;;;;;4995605;28;20999;-67
2022/05/22 00:32:32;;;;;;;10.10;7.93;;;16.50;87.90;;;;;;4996166;28;20455;-68
2022/05/22 00:35:01;;;;;;;7.97;7.17;;;16.50;87.60;;;;;;4995664;28;20504;-67
2022/05/22 00:37:27;;;;;;;12.20;8.13;;;16.50;87.40;;;;;;4995925;28;20451;-67
2022/05/22 00:39:54;;;;;;;11.83;8.20;;;16.50;87.50;;;;;;4995652;28;20950;-68
2022/05/22 00:42:23;;;;;;;9.50;8.70;;;16.50;87.50;;;;;;4995938;28;20483;-68
2022/05/22 00:44:51;;;;;;;9.87;8.90;;;16.50;87.70;;;;;;4995590;28;20930;-68
2022/05/22 00:47:18;;;;;;;9.63;8.73;;;16.40;87.60;;;;;;4995414;28;20447;-67
2022/05/22 00:49:46;;;;;;;8.90;8.00;;;16.40;87.50;;;;;;4995642;28;20464;-67
2022/05/22 00:52:18;;;;;;;12.50;8.00;;;16.40;87.70;;;;;;4994832;28;20448;-67
2022/05/22 00:54:49;;;;;;;9.23;8.43;;;16.30;87.60;;;;;;4995716;28;20455;-68
2022/05/22 00:57:20;;;;;;;9.87;8.33;;;16.30;87.50;;;;;;4995522;28;20443;-67
2022/05/22 00:59:50;;;;;;;11.53;8.77;;;16.30;87.30;;;;;;4995255;28;20881;-68
2022/05/22 01:02:18;;;;;;;8.63;7.83;;;16.20;87.30;;;;;;4995548;28;20505;-67
2022/05/22 01:04:48;;;;;;;10.40;8.20;;;16.20;87.50;;;;;;4995480;28;20444;-68
2022/05/22 01:07:18;;;;;;;11.33;7.87;;;16.10;87.60;;;;;;4995355;28;20421;-67
2022/05/22 01:09:46;;;;;;;10.03;8.93;;;16.10;87.60;;;;;;4994976;28;20996;-67
2022/05/22 01:12:19;;;;;;;9.50;8.60;;;16.10;87.50;;;;;;4994990;28;20968;-67
2022/05/22 01:14:49;;;;;;;9.17;8.40;;;16.10;87.20;;;;;;4994979;28;20436;-67
2022/05/22 01:17:16;;;;;;;11.70;8.50;;;16.10;86.90;;;;;;4995517;28;20452;-67
2022/05/22 01:19:54;;;;;;;8.80;8.00;;;16.00;86.90;;;;;;4995244;28;20475;-68
2022/05/22 01:22:22;;;;;;;10.00;8.47;;;16.00;87.00;;;;;;4995228;28;20432;-68
2022/05/22 01:24:49;;;;;;;9.60;8.70;;;16.00;86.90;;;;;;4995021;28;20448;-68
2022/05/22 01:27:18;;;;;;;8.93;8.03;;;15.90;86.80;;;;;;4994990;28;20448;-67
2022/05/22 01:29:45;;;;;;;8.03;7.33;;;15.90;86.90;;;;;;4994985;28;20819;-67
2022/05/22 01:32:12;;;;;;;9.53;7.87;;;15.80;86.80;;;;;;4994951;28;20496;-68
2022/05/22 01:34:39;;;;;;;8.63;7.20;;;15.80;87.10;;;;;;4994989;28;20455;-68
2022/05/22 01:37:05;;;;;;;11.43;7.80;;;15.80;87.10;;;;;;4995114;28;20444;-68
2022/05/22 01:39:33;;;;;;;8.53;7.73;;;15.80;87.10;;;;;;4994714;28;20841;-68
2022/05/22 01:42:00;;;;;;;9.33;8.33;;;15.70;87.10;;;;;;4995211;28;20440;-68
2022/05/22 01:44:27;;;;;;;9.33;8.43;;;15.70;87.30;;;;;;4994740;28;20451;-68
2022/05/22 01:46:53;;;;;;;8.97;8.10;;;15.60;87.30;;;;;;4995071;28;20452;-66
2022/05/22 01:49:20;;;;;;;8.60;7.67;;;15.60;87.30;;;;;;4994773;28;20464;-66
2022/05/22 01:51:47;;;;;;;7.93;7.23;;;15.60;87.40;;;;;;4994649;28;20480;-66
2022/05/22 01:54:14;;;;;;;8.67;7.77;;;15.60;87.50;;;;;;4994539;28;20806;-66
2022/05/22 01:56:42;;;;;;;8.77;7.93;;;15.60;88.00;;;;;;4994567;28;20452;-66
2022/05/22 01:59:08;;;;;;;9.17;8.37;;;15.50;87.30;;;;;;4994445;28;20472;-66
2022/05/22 02:01:36;;;;;;;8.57;7.67;;;15.50;87.30;;;;;;4994073;28;20452;-66
2022/05/22 02:04:03;;;;;;;8.23;7.53;;;15.50;87.30;;;;;;4994431;28;20444;-66
2022/05/22 02:06:29;;;;;;;8.00;7.30;;;15.50;87.10;;;;;;4994946;28;20433;-66
2022/05/22 02:08:55;;;;;;;11.87;7.70;;;15.50;87.30;;;;;;4993939;28;20985;-66
2022/05/22 02:11:22;;;;;;;9.70;8.00;;;15.50;87.40;;;;;;4994325;28;20493;-66
2022/05/22 02:13:50;;;;;;;8.23;7.40;;;15.40;87.20;;;;;;4993962;28;20674;-66
2022/05/22 02:16:17;;;;;;;9.07;8.17;;;15.40;87.50;;;;;;4993927;28;20455;-66
2022/05/22 02:18:43;;;;;;;10.57;8.40;;;15.30;87.60;;;;;;4993976;28;20500;-66
2022/05/22 02:21:10;;;;;;;8.67;7.87;;;15.40;87.90;;;;;;4994241;28;20468;-66
2022/05/22 02:23:38;;;;;;;14.97;7.80;;;15.30;87.70;;;;;;4994169;28;20452;-66
2022/05/22 02:26:10;;;;;;;7.53;6.83;;;15.30;87.60;;;;;;4994112;28;20479;-66
2022/05/22 02:28:38;;;;;;;8.90;8.10;;;15.30;87.30;;;;;;4994109;28;20499;-66
2022/05/22 02:31:07;;;;;;;8.67;7.33;;;15.30;87.30;;;;;;4994006;28;20484;-66
2022/05/22 02:33:34;;;;;;;7.93;7.23;;;15.30;87.40;;;;;;4993869;28;20451;-66
2022/05/22 02:36:03;;;;;;;7.60;6.80;;;15.20;87.60;;;;;;4994118;28;20455;-66
2022/05/22 02:38:30;;;;;;;7.57;6.70;;;15.20;88.00;;;;;;4994035;28;20468;-66
2022/05/22 02:40:57;;;;;;;7.57;7.00;;;15.20;88.20;;;;;;4993811;28;20451;-66
2022/05/22 02:43:24;;;;;;;7.70;7.10;;;15.20;88.60;;;;;;4994038;28;20448;-66
2022/05/22 02:45:51;;;;;;;7.10;6.40;;;15.20;88.90;;;;;;4994593;28;20455;-66
2022/05/22 02:48:19;;;;;;;7.77;6.37;;;15.10;88.90;;;;;;4993948;28;20475;-66
2022/05/22 02:50:47;;;;;;;8.30;6.53;;;15.10;89.20;;;;;;4993870;28;20491;-66
2022/05/22 02:53:13;;;;;;;7.63;6.67;;;15.10;89.50;;;;;;4993956;28;20480;-66
2022/05/22 02:55:43;;;;;;;8.43;7.63;;;15.10;89.70;;;;;;4993851;28;20456;-66
2022/05/22 02:58:10;;;;;;;7.27;6.23;;;15.10;89.80;;;;;;4993873;28;20485;-66
2022/05/22 03:00:37;;;;;;;7.47;6.67;;;15.00;89.80;;;;;;4993509;28;20476;-66
2022/05/22 03:03:04;;;;;;;10.10;6.20;;;15.00;90.00;;;;;;4993867;28;20452;-66
2022/05/22 03:08:12;;;;;;;7.80;7.07;;;14.90;90.10;;;;;;4992500;28;20495;-66
2022/05/22 03:10:39;;;;;;;8.53;6.97;;;14.90;90.10;;;;;;4993691;28;20496;-66
2022/05/22 03:13:06;;;;;;;7.80;7.20;;;14.90;90.10;;;;;;4993478;28;20819;-66
2022/05/22 03:15:33;;;;;;;8.10;7.30;;;14.90;90.00;;;;;;4996331;28;20448;-66
2022/05/22 03:18:00;;;;;;;11.67;7.10;;;14.90;90.00;;;;;;4997344;28;20479;-66
2022/05/22 03:20:26;;;;;;;7.40;6.80;;;14.90;89.90;;;;;;4997551;28;20444;-66
2022/05/22 03:22:54;;;;;;;9.50;8.13;;;14.80;89.80;;;;;;4997411;28;20447;-66
2022/05/22 03:25:21;;;;;;;7.90;7.17;;;14.80;89.90;;;;;;4997290;28;20440;-66
2022/05/22 03:27:48;;;;;;;8.63;7.80;;;14.80;90.10;;;;;;4997105;28;20973;-66
2022/05/22 03:30:15;;;;;;;8.40;7.60;;;14.80;90.10;;;;;;4997323;28;20452;-66
2022/05/22 03:32:41;;;;;;;8.10;7.30;;;14.80;90.10;;;;;;4997277;28;20491;-66
2022/05/22 03:35:09;;;;;;;9.83;8.67;;;14.80;90.10;;;;;;4997495;28;20455;-66
2022/05/22 03:37:35;;;;;;;9.40;7.17;;;14.80;90.20;;;;;;4997039;28;20985;-66
2022/05/22 03:40:04;;;;;;;7.43;6.73;;;14.80;90.30;;;;;;4997968;28;20455;-66
2022/05/22 03:42:30;;;;;;;7.50;6.50;;;14.80;90.30;;;;;;4998447;28;20459;-66
2022/05/22 03:44:57;;;;;;;7.30;6.70;;;14.80;90.20;;;;;;4998581;28;20444;-67
2022/05/22 03:47:24;;;;;;;8.57;7.77;;;14.80;90.10;;;;;;4998942;28;20452;-66
2022/05/22 03:49:50;;;;;;;8.90;7.93;;;14.70;90.00;;;;;;4999575;28;20448;-66
2022/05/22 03:52:17;;;;;;;7.60;6.97;;;14.80;90.20;;;;;;4999257;28;20488;-66
2022/05/22 03:54:44;;;;;;;9.73;8.27;;;14.80;90.30;;;;;;4998599;28;20460;-66
2022/05/22 03:57:12;;;;;;;8.40;7.70;;;14.80;90.50;;;;;;4997924;28;20972;-66
2022/05/22 03:59:39;;;;;;;7.60;6.80;;;14.80;90.70;;;;;;4996330;28;20946;-66
2022/05/22 04:02:06;;;;;;;8.87;7.50;;;14.80;90.80;;;;;;4996306;28;20456;-66
2022/05/22 04:04:33;;;;;;;11.23;7.67;;;14.90;91.10;;;;;;4996625;28;20448;-66
2022/05/22 04:07:00;;;;;;;8.50;7.77;;;14.90;91.10;;;;;;4996509;28;20475;-66
2022/05/22 04:09:28;;;;;;;9.83;7.77;;;14.90;91.20;;;;;;4996393;28;20464;-66
2022/05/22 04:11:55;;;;;;;12.60;7.90;;;15.00;91.20;;;;;;4996426;28;20491;-66
2022/05/22 04:14:23;;;;;;;12.10;7.30;;;14.90;91.20;;;;;;4996453;28;20457;-66
2022/05/22 04:16:49;;;;;;;7.83;6.87;;;15.00;91.30;;;;;;4996346;28;20448;-66
2022/05/22 04:19:16;;;;;;;7.83;7.20;;;15.00;91.40;;;;;;4996298;28;20881;-66
2022/05/22 04:21:43;;;;;;;9.83;6.87;;;14.90;91.40;;;;;;4996280;28;20451;-66
2022/05/22 04:26:51;;;;;;;7.70;6.57;;;14.90;91.50;;;;;;4962405;28;20428;-66
2022/05/22 04:29:18;;;;;;;8.43;6.80;;;14.90;91.60;;;;;;4995797;28;20973;-66
2022/05/22 04:31:46;;;;;;;8.00;7.20;;;15.00;91.80;;;;;;4996006;28;20491;-67
2022/05/22 04:34:13;;;;;;;7.70;6.90;;;15.00;91.90;;;;;;4995796;28;20931;-67
2022/05/22 04:36:39;;;;;;;6.97;6.27;;;15.00;91.90;;;;;;4996043;28;20452;-67
2022/05/22 04:39:06;;;;;;;9.67;6.60;;;15.00;91.80;;;;;;4995574;28;20982;-67
2022/05/22 04:41:33;;;;;;;9.80;7.47;;;15.10;91.90;;;;;;4995910;28;20448;-66
2022/05/22 04:43:59;;;;;;;10.37;7.30;;;15.10;92.10;;;;;;4995871;28;20452;-66
2022/05/22 04:46:26;;;;;;;8.60;7.20;;;15.10;92.20;;;;;;4995470;28;20845;-67
2022/05/22 04:48:54;;;;;;;8.10;7.30;;;15.10;92.30;;;;;;4995778;28;20479;-67
2022/05/22 04:51:21;;;;;;;10.03;7.60;;;15.10;92.60;;;;;;4995683;28;20896;-67
2022/05/22 04:53:48;;;;;;;9.50;7.40;;;15.10;92.80;;;;;;4995799;28;20451;-66
2022/05/22 04:56:14;;;;;;;8.33;7.50;;;15.10;92.90;;;;;;4995630;28;20452;-67
2022/05/22 04:58:41;;;;;;;8.53;7.80;;;15.20;93.00;;;;;;4995343;28;20476;-67
2022/05/22 05:01:09;;;;;;;8.97;7.30;;;15.20;93.10;;;;;;4995267;28;20460;-67
2022/05/22 05:03:37;;;;;;;7.50;6.80;;;15.30;93.20;;;;;;4995648;28;20492;-67
2022/05/22 05:06:05;;;;;;;9.93;8.30;;;15.40;93.40;;;;;;4995612;28;20524;-67
2022/05/22 05:08:33;;;;;;;9.53;8.53;;;15.50;93.60;;;;;;4995328;28;20468;-67
2022/05/22 05:11:01;;;;;;;9.87;8.67;;;15.50;93.70;;;;;;4995371;28;20448;-67
2022/05/22 05:13:28;;;;;;;7.30;6.60;;;15.60;94.00;;;;;;4995589;28;20461;-67
2022/05/22 05:16:00;;;;;;;9.93;8.93;;;15.70;94.20;;;;;;4995621;28;20452;-67
2022/05/22 05:18:27;;;;;;;13.10;8.57;;;15.70;94.30;;;;;;4995590;28;20472;-67
2022/05/22 05:20:54;;;;;;;10.73;7.97;;;15.80;94.40;;;;;;4995294;28;20968;-67
2022/05/22 05:23:22;;;;;;;11.10;8.60;;;15.90;94.40;;;;;;4995324;28;20472;-67
2022/05/22 05:25:49;;;;;;;13.47;7.63;;;15.90;94.20;;;;;;4994862;28;20448;-67
2022/05/22 05:28:16;;;;;;;9.90;8.33;;;16.00;94.00;;;;;;4994889;28;20475;-67
2022/05/22 05:30:43;;;;;;;10.80;8.03;;;16.00;93.80;;;;;;4994809;28;20472;-67
2022/05/22 05:33:10;;;;;;;8.90;7.80;;;16.10;93.50;;;;;;4994876;28;20487;-67
2022/05/22 05:35:36;;;;;;;11.53;8.30;;;16.30;93.60;;;;;;4994922;28;20821;-67
2022/05/22 05:38:03;;;;;;;9.73;8.73;;;16.30;93.20;;;;;;4994394;28;20465;-67
2022/05/22 05:40:31;;;;;;;10.13;8.47;;;16.40;93.30;;;;;;4994909;28;20428;-67
2022/05/22 05:42:58;;;;;;;10.60;9.17;;;16.50;93.20;;;;;;4994825;28;20447;-67
2022/05/22 05:45:26;;;;;;;8.87;7.97;;;16.60;93.20;;;;;;4994687;28;20526;-67
2022/05/22 05:47:52;;;;;;;9.23;8.40;;;16.60;93.10;;;;;;4994340;28;20997;-67
2022/05/22 05:50:22;;;;;;;11.43;9.13;;;16.70;93.00;;;;;;4994675;28;20455;-67
2022/05/22 05:52:49;;;;;;;10.33;9.13;;;16.80;92.80;;;;;;4994521;28;20487;-67
2022/05/22 05:55:16;;;;;;;10.60;8.63;;;16.90;92.90;;;;;;4994546;28;20448;-66
2022/05/22 05:57:44;;;;;;;9.80;8.27;;;16.90;92.90;;;;;;4994525;28;20495;-66
2022/05/22 06:00:13;;;;;;;10.73;8.43;;;17.00;92.90;;;;;;4994549;28;20480;-66
2022/05/22 06:02:40;;;;;;;11.03;8.90;;;17.10;92.80;;;;;;4994547;28;20440;-68
2022/05/22 06:05:07;;;;;;;10.50;8.33;;;17.10;92.60;;;;;;4994464;28;20436;-68
2022/05/22 06:07:34;;;;;;;12.20;6.70;;;17.20;92.30;;;;;;4994429;28;20471;-67
2022/05/22 06:10:01;;;;;;;8.33;7.47;;;17.30;91.90;;;;;;4994498;28;20448;-66
2022/05/22 06:12:28;;;;;;;10.10;8.77;;;17.40;91.60;;;;;;4994169;28;20928;-67
2022/05/22 06:14:56;;;;;;;11.03;7.70;;;17.40;91.80;;;;;;4994046;28;20945;-67
2022/05/22 06:17:30;;;;;;;10.00;8.17;;;17.60;91.80;;;;;;4994182;28;20467;-67
2022/05/22 06:19:57;;;;;;;9.70;7.90;;;17.70;91.40;;;;;;4994077;28;20850;-67
2022/05/22 06:22:25;;;;;;;8.10;7.20;;;17.70;91.10;;;;;;4994089;28;20921;-67
2022/05/22 06:24:53;;;;;;;10.23;8.17;;;17.80;90.80;;;;;;4994245;28;20437;-66
2022/05/22 06:27:20;;;;;;;8.20;6.87;;;17.90;90.60;;;;;;4993950;28;20451;-66
2022/05/22 06:29:47;;;;;;;9.67;7.73;;;18.00;90.20;;;;;;4993736;28;20455;-66
2022/05/22 06:32:17;;;;;;;10.63;7.87;;;18.10;90.10;;;;;;4994043;28;20476;-69
2022/05/22 06:34:44;;;;;;;12.37;7.50;;;18.20;90.00;;;;;;4994087;28;20774;-69
2022/05/22 06:37:14;;;;;;;7.60;6.77;;;18.40;89.10;;;;;;4994037;28;20475;-68
2022/05/22 06:39:54;;;;;;;7.50;6.70;;;18.50;88.20;;;;;;4994182;28;20444;-68
2022/05/22 06:42:24;;;;;;;10.53;6.30;;;18.60;87.20;;;;;;4994098;28;20436;-69
2022/05/22 06:44:53;;;;;;;7.50;6.80;;;18.70;86.20;;;;;;4994046;28;20424;-69
2022/05/22 06:47:21;;;;;;;8.80;7.67;;;18.90;85.30;;;;;;4993895;28;20524;-68
2022/05/22 06:49:48;;;;;;;7.33;6.10;;;19.00;84.50;;;;;;4995393;28;20555;-69
2022/05/22 06:52:15;;;;;;;7.40;6.57;;;19.20;84.20;;;;;;4997640;28;20903;-69
2022/05/22 06:54:42;;;;;;;10.17;6.67;;;19.30;83.40;;;;;;4997932;28;20452;-69
2022/05/22 06:57:08;;;;;;;11.73;7.37;;;19.40;82.70;;;;;;4997879;28;20444;-68
2022/05/22 06:59:35;;;;;;;10.40;7.03;;;19.50;82.00;;;;;;4998089;28;20478;-68
2022/05/22 07:02:04;;;;;;;6.60;5.73;;;19.60;81.00;;;;;;4997637;28;20805;-69
2022/05/22 07:04:32;;;;;;;9.20;7.17;;;19.70;79.90;;;;;;4997963;28;20453;-69
2022/05/22 07:06:59;;;;;;;9.10;7.67;;;19.90;79.70;;;;;;4997605;28;21015;-69
2022/05/22 07:09:26;;;;;;;10.50;7.00;;;20.00;79.20;;;;;;4997412;28;21007;-68
2022/05/22 07:11:54;;;;;;;9.37;7.40;;;20.20;78.40;;;;;;4997780;28;20841;-69
2022/05/22 07:14:21;;;;;;;7.23;6.50;;;20.40;77.50;;;;;;4998258;28;20567;-68
2022/05/22 07:16:48;;;;;;;8.87;6.57;;;20.50;76.50;;;;;;4997868;28;20902;-69
2022/05/22 07:19:17;;;;;;;8.50;6.03;;;20.70;75.80;;;;;;4998633;28;20471;-69
2022/05/22 07:21:45;;;;;;;11.07;7.33;;;20.90;75.00;;;;;;4999646;28;20474;-69
2022/05/22 07:24:12;;;;;;;7.53;5.43;;;21.20;74.20;;;;;;4999701;28;20958;-69
2022/05/22 07:26:39;;;;;;;12.03;5.60;;;21.30;73.20;;;;;;4999849;28;20451;-68
2022/05/22 07:29:05;;;;;;;9.13;6.00;;;21.50;72.10;;;;;;5001011;28;20971;-68
2022/05/22 07:31:34;;;;;;;7.70;5.67;;;21.80;71.00;;;;;;5000886;28;20507;-68
2022/05/22 07:34:01;;;;;;;5.60;4.80;;;22.00;69.90;;;;;;4999197;28;20493;-68
2022/05/22 07:36:28;;;;;;;10.53;6.23;;;22.30;68.60;;;;;;4997843;28;20502;-68
2022/05/22 07:38:56;;;;;;;9.33;6.13;;;22.50;67.10;;;;;;4996968;28;20981;-68
2022/05/22 07:41:23;;;;;;;7.27;4.70;;;22.70;65.40;;;;;;4997122;28;20448;-68
2022/05/22 07:43:50;;;;;;;11.70;5.80;;;22.90;64.50;;;;;;4997011;28;20459;-68
2022/05/22 07:46:17;;;;;;;6.53;4.07;;;23.10;64.00;;;;;;4996941;28;20452;-68
2022/05/22 07:48:44;;;;;;;8.20;6.33;;;23.40;63.30;;;;;;4996589;28;21004;-68
2022/05/22 07:51:12;;;;;;;10.77;7.83;;;23.60;61.40;;;;;;4997012;28;20452;-68
2022/05/22 07:53:39;;;;;;;9.57;6.40;;;23.80;59.50;;;;;;4996770;28;20539;-68
2022/05/22 07:56:07;;;;;;;7.70;5.50;;;23.90;60.10;;;;;;4996496;28;20950;-68
2022/05/22 07:58:36;;;;;;;6.73;4.90;;;24.00;59.20;;;;;;4996732;28;20468;-68
2022/05/22 08:01:03;;;;;;;7.10;4.80;;;24.20;59.10;;;;;;4996170;28;20464;-68
2022/05/22 08:03:29;;;;;;;7.67;5.30;;;24.40;58.70;;;;;;4996670;28;20440;-68
2022/05/22 08:05:56;;;;;;;6.70;5.33;;;24.60;57.90;;;;;;4996682;28;20457;-68
2022/05/22 08:08:24;;;;;;;10.30;5.90;;;24.90;57.40;;;;;;4996175;28;21000;-68
2022/05/22 08:10:53;;;;;;;7.53;4.70;;;25.10;56.30;;;;;;4996582;28;20432;-68
2022/05/22 08:13:21;;;;;;;7.50;4.07;;;25.20;55.70;;;;;;4996508;28;20479;-68
2022/05/22 08:15:49;;;;;;;5.10;3.73;;;25.40;55.30;;;;;;4996519;28;20484;-69
2022/05/22 08:18:15;;;;;;;4.93;4.00;;;25.70;54.70;;;;;;4996389;28;20483;-69
2022/05/22 08:20:44;;;;;;;9.73;5.93;;;25.90;54.20;;;;;;4996043;28;20459;-70
2022/05/22 08:23:19;;;;;;;6.10;5.40;;;26.10;53.80;;;;;;4996412;28;20454;-70
2022/05/22 08:25:47;;;;;;;9.63;6.10;;;26.20;53.60;;;;;;4996006;28;20435;-70
2022/05/22 08:28:14;;;;;;;7.03;6.23;;;26.30;53.20;;;;;;4996672;28;20464;-69
2022/05/22 08:30:42;;;;;;;7.30;4.27;;;26.30;51.60;;;;;;4996200;28;20507;-68
2022/05/22 08:33:09;;;;;;;8.30;5.87;;;26.30;50.20;;;;;;4996143;28;20491;-69
2022/05/22 08:35:39;;;;;;;12.23;4.10;;;26.30;50.40;;;;;;4996001;28;20839;-68
2022/05/22 08:38:07;;;;;;;8.50;4.67;;;26.30;49.30;;;;;;4995734;28;21003;-68
2022/05/22 08:40:47;;;;;;;8.80;4.93;;;26.40;49.50;;;;;;4996023;28;20855;-69
2022/05/22 08:43:16;;;;;;;6.53;4.30;;;26.50;49.00;;;;;;4996083;28;20470;-68
2022/05/22 08:45:46;;;;;;;9.53;4.60;;;26.50;47.90;;;;;;4995830;28;20964;-68
2022/05/22 08:48:22;;;;;;;6.50;3.67;;;26.60;46.80;;;;;;4996122;28;20479;-68
2022/05/22 08:50:50;;;;;;;7.97;4.33;;;26.70;47.70;;;;;;4996200;28;20527;-68
2022/05/22 08:53:22;;;;;;;7.67;4.80;;;26.80;45.60;;;;;;4996101;28;20491;-69
2022/05/22 08:58:57;;;;;;;7.93;4.70;;;27.10;44.70;;;;;;4996017;28;20490;-68
2022/05/22 09:01:34;;;;;;;7.50;5.00;;;27.20;44.60;;;;;;4995372;28;20968;-69
2022/05/22 09:04:11;;;;;;;6.23;4.47;;;27.50;44.30;;;;;;4995782;28;20435;-68
2022/05/22 09:06:43;;;;;;;6.93;4.70;;;27.70;45.40;;;;;;4995216;28;20925;-68
2022/05/22 09:09:09;;;;;;;8.80;5.37;;;27.90;45.00;;;;;;4995361;28;20495;-67
2022/05/22 09:11:53;;;;;;;5.40;4.90;;;28.10;44.40;;;;;;4995061;28;20451;-67
2022/05/22 09:14:24;;;;;;;8.80;5.70;;;28.30;42.90;;;;;;4994946;28;20563;-67
2022/05/22 09:17:00;;;;;;;8.33;4.63;;;28.50;42.60;;;;;;4995003;28;20796;-67
2022/05/22 09:19:34;;;;;;;7.00;4.83;;;28.60;42.40;;;;;;4995788;28;20468;-65
2022/05/22 09:22:12;;;;;;;7.97;4.80;;;28.80;42.10;;;;;;4995240;28;20432;-65
2022/05/22 09:24:47;;;;;;;10.27;5.00;;;28.80;42.00;;;;;;4995189;28;20436;-65
2022/05/22 09:27:21;;;;;;;7.90;4.90;;;28.90;42.00;;;;;;4994702;28;20906;-65
2022/05/22 09:30:03;;;;;;;6.73;4.50;;;29.00;42.20;;;;;;4995064;28;20440;-65
2022/05/22 09:32:52;;;;;;;11.60;6.53;;;29.10;41.60;;;;;;4994935;28;20443;-65
2022/05/22 09:35:29;;;;;;;11.17;6.97;;;29.10;40.80;;;;;;4994640;28;20812;-65
2022/05/22 09:38:19;;;;;;;8.27;4.97;;;29.10;40.50;;;;;;4994779;28;20471;-65
2022/05/22 09:40:48;;;;;;;5.70;4.60;;;29.10;40.60;;;;;;4994841;28;20448;-65
2022/05/22 09:43:30;;;;;;;9.50;5.13;;;29.20;41.50;;;;;;4994461;28;20910;-65
2022/05/22 09:46:12;;;;;;;7.27;4.27;;;29.40;41.30;;;;;;4994749;28;20435;-65
2022/05/22 09:49:00;;;;;;;10.70;5.43;;;29.60;39.80;;;;;;4994369;28;20596;-66
2022/05/22 09:51:39;;;;;;;8.53;7.27;;;29.70;39.50;;;;;;4994676;28;20436;-65
2022/05/22 09:54:32;;;;;;;8.83;7.63;;;29.90;38.80;;;;;;4994546;28;20476;-65
2022/05/22 09:57:09;;;;;;;8.47;5.57;;;30.20;38.70;;;;;;4994530;28;20454;-65
2022/05/22 09:59:52;;;;;;;8.83;4.97;;;30.40;37.10;;;;;;4994426;28;20472;-65
2022/05/22 10:02:26;;;;;;;9.67;4.63;;;30.70;37.70;;;;;;4994753;28;20428;-65
2022/05/22 10:05:04;;;;;;;9.40;6.57;;;30.90;36.50;;;;;;4994489;28;20432;-66
2022/05/22 10:07:38;;;;;;;8.63;5.80;;;31.10;37.40;;;;;;4994394;28;20431;-66
2022/05/22 10:10:12;;;;;;;7.43;5.87;;;31.20;34.40;;;;;;4994560;28;20421;-66
2022/05/22 10:12:51;;;;;;;10.83;4.40;;;31.00;33.40;;;;;;4994385;28;20432;-66
2022/05/22 10:15:30;;;;;;;7.63;6.10;;;31.00;33.80;;;;;;4994377;28;20428;-66
2022/05/22 10:18:10;;;;;;;6.67;4.93;;;31.00;32.60;;;;;;4994236;28;20470;-66
2022/05/22 10:20:50;;;;;;;7.70;4.73;;;31.20;34.40;;;;;;4994228;28;20428;-66
2022/05/22 10:23:30;;;;;;;5.20;4.20;;;31.50;34.30;;;;;;4994256;28;20432;-66
2022/05/22 10:26:05;;;;;;;6.77;4.10;;;31.90;32.80;;;;;;4994282;28;20482;-66
2022/05/22 10:28:36;;;;;;;6.20;5.20;;;32.30;31.30;;;;;;4993861;28;20980;-66
2022/05/22 10:31:08;;;;;;;6.40;5.70;;;32.80;30.30;;;;;;4994310;28;20486;-67
2022/05/22 10:33:42;;;;;;;6.70;5.27;;;33.40;29.90;;;;;;4994093;28;20470;-67
2022/05/22 10:36:14;;;;;;;6.00;4.57;;;34.00;29.30;;;;;;4994225;28;20594;-67
2022/05/22 10:38:46;;;;;;;4.97;3.70;;;34.50;28.20;;;;;;4994214;28;20468;-67
2022/05/22 10:44:11;;;;;;;8.47;4.93;;;35.70;26.30;;;;;;4994388;28;20427;-67
2022/05/22 10:46:49;;;;;;;6.63;3.90;;;36.40;25.90;;;;;;4994003;28;20941;-67
2022/05/22 10:49:17;;;;;;;6.50;4.77;;;37.10;25.70;;;;;;4994285;28;20263;-67
2022/05/22 10:51:55;;;;;;;5.10;3.53;;;37.80;24.50;;;;;;4994653;28;20204;-67
2022/05/22 10:54:25;;;;;;;6.63;4.87;;;38.20;23.10;;;;;;4995130;28;20209;-67
2022/05/22 10:56:51;;;;;;;7.03;4.07;;;38.40;23.30;;;;;;4995796;28;20240;-67
2022/05/22 10:59:22;;;;;;;8.10;4.60;;;38.20;23.10;;;;;;4996331;28;20220;-67
2022/05/22 11:01:58;;;;;;;5.45;4.30;;;38.30;23.70;;;;;;4996806;28;20232;-67
2022/05/22 11:04:37;;;;;;;6.80;4.28;;;38.60;22.30;;;;;;4998178;28;20189;-67
2022/05/22 11:07:06;;;;;;;5.57;4.60;;;38.70;22.20;;;;;;4997437;28;20192;-67
2022/05/22 11:09:35;;;;;;;7.33;5.07;;;38.70;21.50;;;;;;4995792;28;20722;-67
2022/05/22 11:12:06;;;;;;;11.07;4.50;;;38.50;23.10;;;;;;4995024;28;20196;-67
2022/05/22 11:14:35;;;;;;;6.13;3.55;;;38.30;22.60;;;;;;4993728;28;20221;-67
2022/05/22 11:17:09;;;;;;;5.73;3.70;;;38.40;23.30;;;;;;4993670;28;20224;-67
2022/05/22 11:19:39;;;;;;;5.28;3.55;;;38.40;21.30;;;;;;4993875;28;20224;-68
2022/05/22 11:22:21;;;;;;;12.73;3.63;;;38.60;22.10;;;;;;4993574;28;20646;-68
2022/05/22 11:25:05;;;;;;;13.52;3.67;;;38.80;21.60;;;;;;4993745;28;20196;-67
2022/05/22 11:27:45;;;;;;;4.97;3.03;;;38.90;20.80;;;;;;4993425;28;20883;-67
2022/05/22 11:30:19;;;;;;;6.78;3.70;;;39.20;21.60;;;;;;4993638;28;20188;-67
2022/05/22 11:33:08;;;;;;;5.93;3.55;;;39.60;20.40;;;;;;4993564;28;20224;-67
2022/05/22 11:35:44;;;;;;;8.63;3.30;;;39.70;19.70;;;;;;4994138;28;20663;-68
2022/05/22 11:38:43;;;;;;;6.88;3.22;;;39.90;18.90;;;;;;4997006;28;20256;-68
2022/05/22 11:41:21;;;;;;;5.65;3.00;;;40.10;19.40;;;;;;4996772;28;20689;-69
2022/05/22 11:44:31;;;;;;;5.40;2.80;;;40.70;20.00;;;;;;4997022;28;20181;-69
2022/05/22 11:47:17;;;;;;;6.78;2.45;;;41.20;19.00;;;;;;4972984;28;20204;-67
2022/05/22 11:49:53;;;;;;;7.18;3.10;;;41.70;19.10;;;;;;4997007;28;20189;-67
2022/05/22 11:55:29;;;;;;;3.88;2.85;;;42.60;18.20;;;;;;4996874;28;20275;-68
2022/05/22 11:58:10;;;;;;;5.13;2.78;;;42.70;17.10;;;;;;4996835;28;20226;-67
2022/05/22 12:00:42;;;;;;;3.78;2.17;;;42.90;17.30;;;;;;4996125;28;20216;-68
2022/05/22 12:03:50;;;;;;;5.65;2.50;;;43.10;17.50;;;;;;4996804;28;20199;-67
2022/05/22 12:06:31;;;;;;;5.60;3.75;;;43.40;18.00;;;;;;4991346;28;20204;-67
2022/05/22 12:09:09;;;;;;;6.72;4.00;;;43.80;17.30;;;;;;4996646;28;20228;-67
2022/05/22 12:11:46;;;;;;;4.55;2.88;;;43.90;15.70;;;;;;4996401;28;20639;-67
2022/05/22 12:14:23;;;;;;;4.03;2.72;;;43.70;16.60;;;;;;4996472;28;20581;-67
2022/05/22 12:16:58;;;;;;;4.88;3.05;;;43.90;16.80;;;;;;4996744;28;20189;-67
2022/05/22 12:19:35;;;;;;;8.57;3.00;;;44.10;16.30;;;;;;4996515;28;20228;-67
2022/05/22 12:22:10;;;;;;;4.80;2.63;;;44.30;16.20;;;;;;4996679;28;20207;-67
2022/05/22 12:24:45;;;;;;;4.53;2.15;;;44.50;16.20;;;;;;4996574;28;20185;-67
2022/05/22 12:27:21;;;;;;;3.97;2.28;;;44.80;16.50;;;;;;4996449;28;20192;-67
2022/05/22 12:29:59;;;;;;;5.57;3.22;;;45.20;16.40;;;;;;4997334;28;20185;-67
2022/05/22 12:32:28;;;;;;;5.68;2.55;;;45.50;15.80;;;;;;4996166;28;20200;-67
2022/05/22 12:34:58;;;;;;;5.18;3.08;;;45.70;15.80;;;;;;4996021;28;20767;-67
2022/05/22 12:37:31;;;;;;;6.57;3.83;;;46.00;15.60;;;;;;4996173;28;20598;-67
2022/05/22 12:40:09;;;;;;;5.82;4.05;;;46.20;15.00;;;;;;4996154;28;20197;-68
2022/05/22 12:42:41;;;;;;;4.72;3.80;;;46.10;15.30;;;;;;4996058;28;20585;-69
2022/05/22 12:45:08;;;;;;;6.35;3.58;;;45.70;15.50;;;;;;4996019;28;20181;-69
2022/05/22 12:47:41;;;;;;;4.40;2.67;;;45.50;15.50;;;;;;4994782;28;20224;-69
2022/05/22 12:50:09;;;;;;;3.75;2.90;;;45.60;15.60;;;;;;4995918;28;20189;-70
2022/05/22 12:52:36;;;;;;;4.38;2.60;;;45.90;16.10;;;;;;4995455;28;20697;-70
2022/05/22 12:55:09;;;;;;;3.55;2.85;;;46.20;15.30;;;;;;4995762;28;20217;-69
2022/05/22 12:57:37;;;;;;;3.90;2.88;;;46.50;14.50;;;;;;4995724;28;20220;-68
2022/05/22 13:00:17;;;;;;;4.10;2.28;;;46.80;14.60;;;;;;4995560;28;20243;-68
2022/05/22 13:02:46;;;;;;;4.30;3.72;;;46.90;14.30;;;;;;4995665;28;20200;-69
2022/05/22 13:05:17;;;;;;;4.15;2.78;;;47.10;14.80;;;;;;4995540;28;20204;-69
2022/05/22 13:07:44;;;;;;;5.80;2.70;;;47.20;14.50;;;;;;4995416;28;20235;-68
2022/05/22 13:10:22;;;;;;;7.18;3.42;;;47.20;14.10;;;;;;4995433;28;20255;-68
2022/05/22 13:12:56;;;;;;;6.05;3.25;;;47.20;14.20;;;;;;4995453;28;20188;-68
2022/05/22 13:15:26;;;;;;;5.25;3.05;;;47.40;14.20;;;;;;4995218;28;20550;-68